ADDS METAR Data INFO
IDs: Format: Raw Decoded Include TAF

Data at: 2223 UTC 24 Jun 2018

KHWV 242156Z AUTO 19010KT 10SM FEW100 23/21 A2980 RMK AO2 SLP091 T02280206 TSNO
KHWV 242056Z AUTO 20007KT 10SM CLR 23/21 A2981 RMK AO2 SLP094 T02330206 56008 TSNO
KHWV 242011Z AUTO 20009KT 9SM SCT006 SCT095 23/21 A2981 RMK AO2 T02280206 TSNO
KHWV 241956Z AUTO 20009KT 8SM BKN006 OVC095 22/21 A2982 RMK AO2 SLP095 T02220206 TSNO
KHWV 241856Z AUTO 20012KT 9SM OVC006 22/21 A2983 RMK AO2 CIG 004V009 SLP100 T02170206 TSNO
KHWV 241756Z AUTO 19008KT 9SM OVC007 22/21 A2984 RMK AO2 CIG 005V009 SLP102 T02220206 10228 20178 58007 TSNO
KHWV 241656Z AUTO 19011KT 7SM OVC008 22/21 A2985 RMK AO2 CIG 005V011 SLP106 T02170206 TSNO
KHWV 241625Z AUTO 19010KT 10SM BKN008 OVC012 22/21 A2985 RMK AO2 T02220206 TSNO
KHWV 241616Z AUTO 19008KT 10SM OVC010 23/21 A2985 RMK AO2 CIG 006V013 T02280206 TSNO
KHWV 241556Z AUTO 21008KT 10SM OVC005 22/20 A2985 RMK AO2 CIG 004V010 SLP108 T02170200 TSNO
KHWV 241456Z AUTO 21007KT 6SM BR OVC006 21/20 A2986 RMK AO2 CIG 004V009 SLP109 T02060200 55000 TSNO
KHWV 241442Z AUTO 24005KT 9SM OVC005 21/20 A2986 RMK AO2 CIG 004V009 T02060200 TSNO
KHWV 241410Z AUTO 19006KT 5SM BR OVC003 20/19 A2986 RMK AO2 T02000194 TSNO
KHWV 241356Z AUTO 18009KT 5SM BR OVC006 19/19 A2985 RMK AO2 SLP109 T01940194 TSNO
KHWV 241256Z AUTO 23006KT 10SM OVC005 19/19 A2986 RMK AO2 CIG 003V007 SLP109 T01940189 TSNO
KHWV 241252Z AUTO 22006KT 10SM OVC005 19/19 A2986 RMK AO2 CIG 003V007 TSNO
KHWV 241241Z AUTO 21006KT 10SM OVC003 19/19 A2986 RMK AO2 CIG 002V006 T01890189 TSNO
KHWV 241205Z AUTO 21006KT 3SM BR OVC002 18/18 A2985 RMK AO2 T01830183 TSNO
KHWV 241156Z AUTO 20009KT 1SM BR OVC002 18/18 A2985 RMK AO2 SLP107 T01780178 10183 20167 53006 TSNO
KHWV 241137Z AUTO 19008KT 1 1/2SM BR OVC002 18/18 A2985 RMK AO2 T01780178 TSNO
KHWV 241127Z AUTO 19008KT 1 3/4SM BR OVC003 18/18 A2985 RMK AO2 T01780178 TSNO
KHWV 241056Z AUTO 19004KT 7SM OVC003 18/18 A2984 RMK AO2 SLP105 T01780178 TSNO
KHWV 241010Z AUTO 19003KT 5SM BR BKN004 17/17 A2983 RMK AO2 T01720172 TSNO
KHWV 241003Z AUTO 19003KT 5SM BR BKN005 17/17 A2983 RMK AO2 T01720172 TSNO
KHWV 240956Z AUTO 20003KT 5SM BR SCT005 17/17 A2983 RMK AO2 SLP102 T01720172 TSNO
KHWV 240924Z AUTO 00000KT 3SM BR SCT019 17/17 A2982 RMK AO2 T01670167 TSNO
KHWV 240915Z AUTO 00000KT 4SM BR FEW002 BKN019 17/17 A2982 RMK AO2 T01670167 TSNO
KHWV 240856Z AUTO 00000KT 6SM BR OVC020 17/17 A2983 RMK AO2 SLP100 T01720172 56001 TSNO
KHWV 240840Z AUTO 17004KT 6SM BR SCT003 OVC020 17/17 A2983 RMK AO2 T01720172 TSNO
KHWV 240756Z AUTO 00000KT 6SM BR OVC004 17/17 A2983 RMK AO2 SLP101 T01720172 TSNO
KHWV 240656Z AUTO 34004KT 6SM BR OVC003 17/17 A2982 RMK AO2 CIG 002V006 SLP098 T01720172 TSNO
KHWV 240616Z AUTO 00000KT 7SM OVC004 17/17 A2983 RMK AO2 CIG 002V008 T01720172 TSNO
KHWV 240556Z AUTO 00000KT 4SM BR OVC002 17/17 A2983 RMK AO2 SLP101 T01670167 10183 20167 58003 TSNO
KHWV 240456Z AUTO 00000KT 1 1/4SM BR OVC002 17/17 A2984 RMK AO2 SLP105 T01720172 401890150 TSNO
KHWV 240447Z AUTO 00000KT 2 1/2SM BR OVC002 17/17 A2984 RMK AO2 T01720172 TSNO
KHWV 240429Z AUTO 00000KT 1 1/2SM BR OVC002 17/17 A2984 RMK AO2 T01720172 TSNO
KHWV 240416Z AUTO 33003KT 2 1/2SM BR OVC002 17/17 A2985 RMK AO2 T01720172 TSNO
KHWV 240356Z AUTO 00000KT 1 3/4SM BR OVC002 17/17 A2985 RMK AO2 SLP107 T01720172 TSNO
KHWV 240256Z AUTO 35005KT 2 1/2SM BR OVC002 17/17 A2984 RMK AO2 SLP104 T01720172 51009 TSNO
KHWV 240227Z AUTO 36004KT 2 1/2SM BR OVC002 17/17 A2984 RMK AO2 T01720172 TSNO
KHWV 240156Z AUTO 01004KT 2 1/2SM BR OVC003 17/17 A2984 RMK AO2 SLP104 T01720172 TSNO
KHWV 240137Z AUTO 33004KT 2 1/2SM BR OVC003 18/18 A2985 RMK AO2 T01780178 TSNO
KHWV 240056Z AUTO 00000KT 4SM BR OVC004 18/18 A2985 RMK AO2 SLP107 T01830183 TSNO
KHWV 240005Z AUTO 01003KT 3SM BR BKN003 OVC007 18/18 A2982 RMK AO2 T01830183 TSNO
KHWV 232356Z AUTO 00000KT 3SM BR SCT003 OVC007 18/18 A2981 RMK AO2 SLP095 T01830183 10189 20172 58001 TSNO
KHWV 232351Z AUTO 02003KT 4SM BR FEW003 OVC007 18/18 A2981 RMK AO2 TSNO
KHWV 232344Z AUTO VRB03KT 2 1/2SM BR OVC005 18/18 A2982 RMK AO2 T01830183 TSNO
KHWV 232336Z AUTO 00000KT 1 3/4SM BR OVC005 18/18 A2982 RMK AO2 T01830183 TSNO
KHWV 232304Z AUTO 00000KT 1 1/2SM BR OVC003 18/18 A2982 RMK AO2 T01830183 TSNO
KHWV 232256Z AUTO 34003KT 2SM BR OVC003 18/18 A2982 RMK AO2 SLP099 T01830183 TSNO
KHWV 232208Z AUTO 01003KT 2SM BR OVC004 18/18 A2981 RMK AO2 T01830183 TSNO
KHWV 232156Z AUTO 34005KT 3SM BR OVC004 18/18 A2982 RMK AO2 SLP096 T01830183 TSNO
KHWV 232056Z AUTO 36006KT 9SM OVC004 19/18 A2981 RMK AO2 SLP095 T01890183 56010 TSNO
KHWV 231956Z AUTO 36005KT 7SM OVC004 18/18 A2982 RMK AO2 SLP098 T01830178 TSNO
KHWV 231856Z AUTO 01006KT 5SM BR OVC004 18/18 A2983 RMK AO2 SLP101 T01830178 TSNO
KHWV 231756Z AUTO 01006KT 5SM BR OVC004 18/17 A2984 RMK AO2 SLP106 60000 T01780172 10189 20156 55009 TSNO
KHWV 231656Z AUTO 02004KT 10SM OVC004 19/18 A2984 RMK AO2 SLP105 T01890183 TSNO
KHWV 231556Z AUTO VRB03KT 8SM OVC004 18/18 A2986 RMK AO2 SLP113 T01780178 TSNO
KHWV 231456Z AUTO VRB06KT 3SM BR OVC004 17/17 A2987 RMK AO2 SLP115 60000 T01720172 56007 TSNO
KHWV 231453Z AUTO VRB06KT 2 1/2SM BR OVC004 17/17 A2987 RMK AO2 TSNO
KHWV 231434Z AUTO VRB06KT 1 3/4SM BR OVC004 17/17 A2987 RMK AO2 T01670167 TSNO
KHWV 231413Z AUTO 00000KT 2SM BR OVC004 17/17 A2988 RMK AO2 T01670167 TSNO
KHWV 231356Z AUTO VRB04KT 1 1/2SM BR OVC004 16/16 A2988 RMK AO2 SLP118 T01610161 TSNO
KHWV 231346Z AUTO VRB04KT 1 3/4SM BR OVC005 16/16 A2988 RMK AO2 T01610161 TSNO
KHWV 231256Z AUTO 4SM BR OVC006 16/16 A2989 RMK AO2 RAB03E37 SLP122 P0000 T01610161 TSNO
KHWV 231156Z AUTO VRB05KT 10SM OVC007 16/16 A2991 RMK AO2 RAB34E46 SLP130 P0000 60003 70003 T01560156 10183 20150 55004 TSNO
KHWV 231114Z AUTO VRB03KT 10SM OVC008 16/15 A2991 RMK AO2 T01560150 TSNO
KHWV 231056Z AUTO VRB05KT 10SM OVC010 15/15 A2991 RMK AO2 RAE36 CIG 008V012 SLP128 P0001 T01500150 TSNO
KHWV 231033Z AUTO VRB03KT 5SM -RA BR OVC012 15/15 A2991 RMK AO2 P0001 T01500150 TSNO
KHWV 231025Z AUTO VRB04KT 2 1/2SM -RA BR OVC012 15/14 A2990 RMK AO2 PRESFR P0001 T01500144 TSNO